Time;durP1;ratioP1;P1;durP2;ratioP2;P2;SDS_P1;SDS_P2;PMS_P1;PMS_P2;Temp;Humidity;BMP_temperature;BMP_pressure;BME280_temperature;BME280_humidity;BME280_pressure;Samples;Min_cycle;Max_cycle;Signal;HPM_P1;HPM_P2
2024/01/02 00:00:49;;;;;;;14.20;3.42;;;5.20;99.90;;;;;;5095398;28;20122;-81
2024/01/02 00:03:15;;;;;;;9.43;3.05;;;5.30;99.90;;;;;;5112605;27;20070;-81
2024/01/02 00:05:41;;;;;;;11.07;3.63;;;5.30;99.90;;;;;;5084710;28;20032;-81
2024/01/02 00:08:06;;;;;;;12.80;3.40;;;5.30;99.90;;;;;;5109812;28;20129;-81
2024/01/02 00:10:32;;;;;;;8.02;3.08;;;5.30;99.90;;;;;;5095493;28;20049;-81
2024/01/02 00:12:58;;;;;;;14.48;3.70;;;5.30;99.90;;;;;;5095902;28;20059;-80
2024/01/02 00:15:24;;;;;;;9.98;3.10;;;5.30;99.90;;;;;;5108800;28;20037;-81
2024/01/02 00:17:50;;;;;;;10.63;3.42;;;5.30;99.90;;;;;;5112420;28;20039;-82
2024/01/02 00:20:15;;;;;;;9.00;3.03;;;5.30;99.90;;;;;;5095124;28;20035;-82
2024/01/02 00:22:41;;;;;;;11.48;4.03;;;5.30;99.90;;;;;;5108841;28;20049;-82
2024/01/02 00:25:07;;;;;;;11.60;3.17;;;5.30;99.90;;;;;;5095490;28;20035;-81
2024/01/02 00:27:33;;;;;;;9.68;3.33;;;5.20;99.90;;;;;;5095128;28;20035;-81
2024/01/02 00:29:58;;;;;;;9.45;3.10;;;5.30;99.90;;;;;;5112652;28;20036;-82
2024/01/02 00:32:24;;;;;;;10.25;2.88;;;5.30;99.90;;;;;;5095427;27;20038;-82
2024/01/02 00:34:51;;;;;;;9.27;3.80;;;5.30;99.90;;;;;;5114620;27;20031;-81
2024/01/02 00:37:16;;;;;;;7.60;3.03;;;5.30;99.90;;;;;;5098197;27;20042;-81
2024/01/02 00:39:42;;;;;;;10.85;3.00;;;5.30;99.90;;;;;;5099370;27;20039;-82
2024/01/02 00:42:08;;;;;;;10.90;3.30;;;5.30;99.90;;;;;;5116613;27;20050;-81
2024/01/02 00:44:33;;;;;;;10.50;3.10;;;5.30;99.90;;;;;;5115798;27;20042;-82
2024/01/02 00:46:59;;;;;;;14.13;2.78;;;5.30;99.90;;;;;;5099230;27;20550;-82
2024/01/02 00:49:24;;;;;;;7.38;3.10;;;5.40;99.90;;;;;;5098642;27;20501;-81
2024/01/02 00:51:50;;;;;;;8.60;2.78;;;5.40;99.90;;;;;;5111918;27;20039;-81
2024/01/02 00:54:16;;;;;;;5.15;2.55;;;5.40;99.90;;;;;;5111298;27;20061;-82
2024/01/02 00:56:41;;;;;;;8.23;2.22;;;5.40;99.90;;;;;;5131093;27;20461;-82
2024/01/02 00:59:07;;;;;;;9.23;2.63;;;5.40;99.90;;;;;;5086415;27;20413;-82
2024/01/02 01:01:32;;;;;;;8.40;2.33;;;5.40;99.90;;;;;;5111763;27;20066;-83
2024/01/02 01:03:58;;;;;;;8.43;2.33;;;5.40;99.90;;;;;;5115170;27;20089;-82
2024/01/02 01:06:24;;;;;;;10.82;2.97;;;5.40;99.90;;;;;;5114784;27;20458;-82
2024/01/02 01:08:49;;;;;;;8.43;2.40;;;5.40;99.90;;;;;;5098209;27;20031;-82
2024/01/02 01:11:15;;;;;;;14.40;2.63;;;5.40;99.90;;;;;;5115400;27;20095;-82
2024/01/02 01:13:40;;;;;;;8.05;2.28;;;5.40;99.90;;;;;;5115266;27;21006;-81
2024/01/02 01:16:06;;;;;;;7.82;2.72;;;5.40;99.90;;;;;;5098400;27;20039;-83
2024/01/02 01:18:32;;;;;;;8.98;2.33;;;6.10;99.90;;;;;;5098355;27;20387;-81
2024/01/02 01:20:57;;;;;;;10.60;3.08;;;6.20;99.90;;;;;;5115441;27;20414;-82
2024/01/02 01:23:23;;;;;;;9.00;2.03;;;5.50;99.90;;;;;;5113940;27;20498;-83
2024/01/02 01:25:48;;;;;;;8.57;2.20;;;6.00;99.90;;;;;;5098412;27;20027;-83
2024/01/02 01:28:14;;;;;;;10.30;2.47;;;5.50;99.90;;;;;;5093997;27;20027;-83
2024/01/02 01:30:39;;;;;;;10.00;2.22;;;5.60;99.90;;;;;;5096048;27;20070;-83
2024/01/02 01:33:07;;;;;;;7.78;2.00;;;5.60;99.90;;;;;;5098061;27;20081;-82
2024/01/02 01:35:33;;;;;;;8.20;1.88;;;5.50;99.90;;;;;;5098094;27;20031;-81
2024/01/02 01:37:59;;;;;;;14.00;2.65;;;6.20;99.90;;;;;;5115116;27;20031;-82
2024/01/02 01:40:24;;;;;;;10.25;2.30;;;6.20;99.90;;;;;;5098116;27;20091;-82
2024/01/02 01:42:50;;;;;;;7.40;1.98;;;6.10;99.90;;;;;;5097320;27;20035;-81
2024/01/02 01:45:15;;;;;;;7.65;2.05;;;5.60;99.90;;;;;;5113963;27;20063;-82
2024/01/02 01:47:42;;;;;;;9.82;2.22;;;5.60;99.90;;;;;;5115085;27;20039;-82
2024/01/02 01:50:08;;;;;;;11.13;2.50;;;5.60;99.90;;;;;;5097291;27;20104;-83
2024/01/02 01:52:34;;;;;;;6.85;2.17;;;5.60;99.90;;;;;;5094392;27;20111;-83
2024/01/02 01:55:00;;;;;;;10.27;2.35;;;5.60;99.90;;;;;;5108679;28;20122;-84
2024/01/02 01:57:26;;;;;;;8.48;2.40;;;5.60;99.90;;;;;;5104201;27;20031;-83
2024/01/02 01:59:52;;;;;;;11.55;2.50;;;5.60;99.90;;;;;;5099734;27;20040;-82
2024/01/02 02:02:18;;;;;;;8.43;2.28;;;6.40;99.90;;;;;;5091939;27;20043;-83
2024/01/02 02:04:46;;;;;;;10.93;2.45;;;5.60;99.90;;;;;;5114633;27;20042;-83
2024/01/02 02:07:13;;;;;;;10.75;2.65;;;5.60;99.90;;;;;;5097791;27;20073;-83
2024/01/02 02:09:39;;;;;;;7.28;2.35;;;6.10;99.90;;;;;;5112436;27;20043;-82
2024/01/02 02:12:05;;;;;;;11.02;2.53;;;5.70;99.90;;;;;;5097456;27;20091;-84
2024/01/02 02:14:31;;;;;;;14.13;3.33;;;5.70;99.90;;;;;;5114200;27;20122;-84
2024/01/02 02:16:57;;;;;;;6.35;2.20;;;6.20;99.90;;;;;;5093784;27;20034;-85
2024/01/02 02:19:23;;;;;;;10.80;2.40;;;5.80;99.90;;;;;;5097611;27;21541;-82
2024/01/02 02:21:51;;;;;;;8.80;2.75;;;5.70;99.90;;;;;;5092862;27;20084;-83
2024/01/02 02:24:18;;;;;;;8.75;2.80;;;6.20;99.90;;;;;;5095649;27;20049;-83
2024/01/02 02:26:44;;;;;;;10.80;3.00;;;6.60;99.90;;;;;;5112157;27;20045;-82
2024/01/02 02:29:09;;;;;;;12.02;3.40;;;6.50;99.90;;;;;;5089416;27;20121;-83
2024/01/02 02:31:35;;;;;;;6.25;2.78;;;5.80;99.90;;;;;;5096926;27;20075;-83
2024/01/02 02:34:01;;;;;;;8.73;3.17;;;5.80;99.90;;;;;;5096696;27;20027;-82
2024/01/02 02:36:26;;;;;;;12.02;3.55;;;5.80;99.90;;;;;;5111588;27;20627;-83
2024/01/02 02:38:52;;;;;;;10.80;3.80;;;6.60;99.90;;;;;;5097387;27;20422;-83
2024/01/02 02:41:18;;;;;;;11.68;4.38;;;6.10;99.90;;;;;;5112417;27;20080;-84
2024/01/02 02:43:44;;;;;;;9.38;3.50;;;6.30;99.90;;;;;;5095599;27;20080;-83
2024/01/02 02:46:09;;;;;;;9.68;3.78;;;5.90;99.90;;;;;;5111653;27;20043;-82
2024/01/02 02:48:35;;;;;;;9.13;4.57;;;5.90;99.90;;;;;;5096734;27;20035;-82
2024/01/02 02:51:01;;;;;;;8.95;4.13;;;5.90;99.90;;;;;;5111962;27;20038;-83
2024/01/02 02:53:26;;;;;;;11.93;4.53;;;5.90;99.90;;;;;;5096304;27;20027;-84
2024/01/02 02:55:52;;;;;;;11.90;4.82;;;5.90;99.90;;;;;;5096059;27;20039;-83
2024/01/02 02:58:18;;;;;;;12.75;4.65;;;5.90;99.90;;;;;;5096011;27;20038;-83
2024/01/02 03:00:43;;;;;;;10.88;4.90;;;5.90;99.90;;;;;;5113582;27;20041;-83
2024/01/02 03:03:09;;;;;;;10.70;4.95;;;5.90;99.90;;;;;;5096875;27;20039;-83
2024/01/02 03:05:35;;;;;;;10.05;4.90;;;5.90;99.90;;;;;;5111945;27;20062;-83
2024/01/02 03:08:00;;;;;;;9.43;4.47;;;5.90;99.90;;;;;;5111931;27;20031;-83
2024/01/02 03:10:26;;;;;;;13.60;4.88;;;5.90;99.90;;;;;;5096180;28;20510;-84
2024/01/02 03:12:52;;;;;;;11.23;5.15;;;5.90;99.90;;;;;;5114357;28;20039;-83
2024/01/02 03:15:17;;;;;;;11.10;5.70;;;5.90;99.90;;;;;;5114029;27;20023;-83
2024/01/02 03:17:43;;;;;;;15.48;6.13;;;6.00;99.90;;;;;;5093135;28;20036;-84
2024/01/02 03:20:09;;;;;;;8.80;5.38;;;5.90;99.90;;;;;;5109463;28;20047;-84
2024/01/02 03:22:34;;;;;;;10.65;4.78;;;5.90;99.90;;;;;;5105812;28;20046;-84
2024/01/02 03:25:00;;;;;;;13.25;4.97;;;5.90;99.90;;;;;;5094553;28;20080;-84
2024/01/02 03:27:26;;;;;;;12.30;5.28;;;6.30;99.90;;;;;;5086551;28;20618;-83
2024/01/02 03:29:51;;;;;;;10.82;5.10;;;5.90;99.90;;;;;;5114010;28;20038;-83
2024/01/02 03:32:17;;;;;;;9.68;5.00;;;5.90;99.90;;;;;;5093394;28;20095;-83
2024/01/02 03:34:43;;;;;;;9.77;4.90;;;5.90;99.90;;;;;;5096462;28;20699;-83
2024/01/02 03:37:09;;;;;;;10.07;5.18;;;5.90;99.90;;;;;;5102900;28;20063;-83
2024/01/02 03:39:34;;;;;;;10.68;5.05;;;6.50;99.90;;;;;;5086430;28;20068;-83
2024/01/02 03:42:00;;;;;;;15.10;5.60;;;6.70;99.90;;;;;;5092519;28;20043;-83
2024/01/02 03:44:25;;;;;;;9.68;5.10;;;5.90;99.90;;;;;;5111976;28;20046;-83
2024/01/02 03:46:51;;;;;;;11.90;5.03;;;5.90;99.90;;;;;;5112834;28;20039;-82
2024/01/02 03:49:17;;;;;;;14.10;5.57;;;6.20;99.90;;;;;;5112890;28;20070;-83
2024/01/02 03:51:43;;;;;;;8.63;4.68;;;5.90;99.90;;;;;;5095859;28;20120;-82
2024/01/02 03:54:08;;;;;;;10.00;4.80;;;5.80;99.90;;;;;;5089752;28;20044;-83
2024/01/02 03:56:34;;;;;;;13.38;5.15;;;5.90;99.90;;;;;;5085184;28;20043;-84
2024/01/02 03:58:59;;;;;;;8.00;4.10;;;5.90;99.90;;;;;;5092734;28;20444;-84
2024/01/02 04:01:25;;;;;;;11.57;4.90;;;5.80;99.90;;;;;;5110970;28;20053;-84
2024/01/02 04:03:51;;;;;;;11.93;4.82;;;6.70;99.90;;;;;;5095040;28;20096;-84
2024/01/02 04:06:16;;;;;;;11.73;4.78;;;5.90;99.90;;;;;;5104883;28;20050;-83
2024/01/02 04:08:42;;;;;;;8.63;4.25;;;6.60;99.90;;;;;;5097039;27;20035;-83
2024/01/02 04:11:08;;;;;;;13.18;4.60;;;6.40;99.90;;;;;;5094685;28;20039;-84
2024/01/02 04:13:33;;;;;;;9.20;4.13;;;5.90;99.90;;;;;;5096901;27;20092;-83
2024/01/02 04:15:59;;;;;;;9.45;4.78;;;6.70;99.90;;;;;;5092644;27;20031;-84
2024/01/02 04:18:24;;;;;;;8.65;4.15;;;5.90;99.90;;;;;;5109787;27;20067;-83
2024/01/02 04:20:50;;;;;;;9.27;4.38;;;6.70;99.90;;;;;;5084088;28;20524;-84
2024/01/02 04:23:16;;;;;;;7.72;4.00;;;6.00;99.90;;;;;;5087108;27;20051;-84
2024/01/02 04:25:41;;;;;;;7.18;3.90;;;6.00;99.90;;;;;;5090963;27;20101;-82
2024/01/02 04:28:07;;;;;;;9.32;4.30;;;5.90;99.90;;;;;;5112946;27;20129;-82
2024/01/02 04:30:34;;;;;;;8.95;3.88;;;5.90;99.90;;;;;;5109309;27;20046;-83
2024/01/02 04:33:00;;;;;;;9.43;3.97;;;6.30;99.90;;;;;;5109451;27;20046;-84
2024/01/02 04:35:25;;;;;;;9.52;3.72;;;6.20;99.90;;;;;;5109074;27;20028;-84
2024/01/02 04:37:51;;;;;;;7.93;3.70;;;5.90;99.90;;;;;;5110724;28;20034;-83
2024/01/02 04:40:17;;;;;;;9.23;4.18;;;6.70;99.90;;;;;;5110504;27;20051;-84
2024/01/02 04:42:43;;;;;;;8.25;3.75;;;6.60;99.90;;;;;;5096118;28;20039;-84
2024/01/02 04:45:09;;;;;;;8.15;3.53;;;6.70;99.90;;;;;;5106947;27;20486;-84
2024/01/02 04:47:36;;;;;;;8.93;3.60;;;6.00;99.90;;;;;;5095916;28;20039;-84
2024/01/02 04:50:02;;;;;;;11.25;3.58;;;6.60;99.90;;;;;;5111183;28;20061;-82
2024/01/02 04:52:27;;;;;;;6.82;3.60;;;6.00;99.90;;;;;;5106928;27;20073;-83
2024/01/02 04:54:53;;;;;;;7.15;3.42;;;6.70;99.90;;;;;;5097871;27;20058;-84
2024/01/02 04:57:19;;;;;;;6.63;3.30;;;6.50;99.90;;;;;;5095900;28;20043;-84
2024/01/02 04:59:44;;;;;;;6.07;2.85;;;6.20;99.90;;;;;;5094212;27;20041;-84
2024/01/02 05:02:10;;;;;;;5.85;2.80;;;6.60;99.90;;;;;;5112710;27;20043;-83
2024/01/02 05:04:36;;;;;;;10.55;3.13;;;6.00;99.90;;;;;;5114801;27;20568;-83
2024/01/02 05:07:02;;;;;;;6.22;2.88;;;6.00;99.90;;;;;;5082070;27;20517;-84
2024/01/02 05:09:27;;;;;;;7.18;2.70;;;6.00;99.90;;;;;;5087696;27;20047;-84
2024/01/02 05:11:54;;;;;;;6.00;2.92;;;6.00;99.90;;;;;;5094997;28;20065;-84
2024/01/02 05:14:19;;;;;;;8.63;3.15;;;6.00;99.90;;;;;;5106781;27;20525;-84
2024/01/02 05:16:45;;;;;;;4.90;2.42;;;6.70;99.90;;;;;;5097924;27;20069;-85
2024/01/02 05:19:11;;;;;;;5.40;2.58;;;6.70;99.90;;;;;;5096205;27;20451;-84
2024/01/02 05:21:36;;;;;;;8.55;2.97;;;6.00;99.90;;;;;;5115374;27;20039;-83
2024/01/02 05:24:02;;;;;;;4.70;2.50;;;6.80;99.90;;;;;;5092834;28;20031;-84
2024/01/02 05:26:28;;;;;;;3.95;2.40;;;6.00;99.90;;;;;;5088017;28;20067;-85
2024/01/02 05:28:54;;;;;;;6.53;2.85;;;6.50;99.90;;;;;;5095015;28;20114;-83
2024/01/02 05:31:19;;;;;;;5.07;2.42;;;6.50;99.90;;;;;;5094600;28;20059;-84
2024/01/02 05:33:45;;;;;;;6.78;2.90;;;6.00;99.90;;;;;;5091302;27;20399;-83
2024/01/02 05:36:11;;;;;;;7.28;2.80;;;6.00;99.90;;;;;;5113579;27;20034;-84
2024/01/02 05:38:36;;;;;;;5.70;3.00;;;6.40;99.90;;;;;;5090768;27;20035;-85
2024/01/02 05:41:02;;;;;;;5.35;2.60;;;6.00;99.90;;;;;;5095125;28;20039;-83
2024/01/02 05:43:28;;;;;;;5.60;2.50;;;6.00;99.90;;;;;;5113659;27;20078;-84
2024/01/02 05:45:53;;;;;;;5.28;2.28;;;6.00;99.90;;;;;;5104626;28;20036;-83
2024/01/02 05:48:19;;;;;;;6.95;1.90;;;6.00;99.90;;;;;;5112270;28;20047;-84
2024/01/02 05:50:44;;;;;;;5.32;1.73;;;6.70;99.90;;;;;;5086001;28;20043;-84
2024/01/02 05:53:10;;;;;;;3.85;1.60;;;6.50;99.90;;;;;;5091879;27;20148;-84
2024/01/02 05:55:36;;;;;;;5.25;1.70;;;6.70;99.90;;;;;;5111857;27;20031;-83
2024/01/02 05:58:02;;;;;;;5.53;1.80;;;6.20;99.90;;;;;;5097024;27;20033;-84
2024/01/02 06:00:27;;;;;;;4.05;1.60;;;6.00;99.90;;;;;;5091006;27;20470;-84
2024/01/02 06:02:53;;;;;;;3.58;1.80;;;6.00;99.90;;;;;;5089712;28;20123;-83
2024/01/02 06:05:19;;;;;;;3.10;1.67;;;6.00;99.90;;;;;;5093902;27;20107;-83
2024/01/02 06:07:44;;;;;;;3.58;1.92;;;6.00;99.90;;;;;;5111747;27;20526;-85
2024/01/02 06:10:11;;;;;;;5.32;2.00;;;6.00;99.90;;;;;;5097824;27;20713;-83
2024/01/02 06:12:37;;;;;;;4.70;1.75;;;6.00;99.90;;;;;;5107156;27;20039;-84
2024/01/02 06:15:03;;;;;;;1.58;1.27;;;6.50;99.90;;;;;;5093678;27;20043;-84
2024/01/02 06:17:29;;;;;;;2.47;1.63;;;6.00;99.90;;;;;;5095807;27;20043;-82
2024/01/02 06:19:54;;;;;;;4.35;1.40;;;6.70;99.90;;;;;;5090935;28;20511;-84
2024/01/02 06:22:20;;;;;;;2.22;1.30;;;6.00;99.90;;;;;;5084978;27;20031;-84
2024/01/02 06:24:45;;;;;;;2.65;1.15;;;6.20;99.90;;;;;;5096784;27;20050;-85
2024/01/02 06:27:11;;;;;;;3.00;1.20;;;6.10;99.90;;;;;;5114901;27;20042;-84
2024/01/02 06:29:37;;;;;;;2.20;1.17;;;6.10;99.90;;;;;;5091218;28;20521;-85
2024/01/02 06:32:03;;;;;;;2.22;1.30;;;6.70;99.90;;;;;;5079399;28;20031;-84
2024/01/02 06:34:29;;;;;;;2.60;1.33;;;6.10;99.90;;;;;;5091323;27;20031;-84
2024/01/02 06:36:55;;;;;;;3.40;1.10;;;6.00;99.90;;;;;;5094737;27;20038;-84
2024/01/02 06:39:21;;;;;;;1.67;1.08;;;6.00;99.90;;;;;;5096640;27;20114;-83
2024/01/02 06:41:46;;;;;;;2.00;1.10;;;6.80;99.90;;;;;;5097104;27;20117;-84
2024/01/02 06:44:15;;;;;;;3.10;1.40;;;6.60;99.90;;;;;;5112417;27;20057;-84
2024/01/02 06:46:40;;;;;;;1.35;0.90;;;6.50;99.90;;;;;;5104749;27;20035;-84
2024/01/02 06:49:06;;;;;;;1.55;1.20;;;6.80;99.90;;;;;;5091688;28;20039;-83
2024/01/02 06:51:31;;;;;;;2.00;1.00;;;6.80;99.90;;;;;;5084934;27;20043;-84
2024/01/02 06:53:57;;;;;;;2.30;1.15;;;6.80;99.90;;;;;;5081086;28;20027;-84
2024/01/02 06:56:23;;;;;;;1.50;1.13;;;6.20;99.90;;;;;;5087980;27;20394;-84
2024/01/02 06:58:48;;;;;;;1.33;1.10;;;6.80;99.90;;;;;;5095206;27;20120;-84
2024/01/02 07:01:15;;;;;;;2.08;1.08;;;6.10;99.90;;;;;;5109393;27;20066;-83
2024/01/02 07:03:41;;;;;;;1.20;0.90;;;6.70;99.90;;;;;;5111391;27;20043;-84
2024/01/02 07:06:07;;;;;;;1.10;0.90;;;6.10;99.90;;;;;;5085111;27;20099;-84
2024/01/02 07:08:32;;;;;;;2.20;1.10;;;6.10;99.90;;;;;;5107874;27;20031;-84
2024/01/02 07:10:58;;;;;;;1.58;1.20;;;7.00;99.90;;;;;;5103229;28;20032;-84
2024/01/02 07:13:24;;;;;;;1.70;1.25;;;6.80;99.90;;;;;;5092442;27;20513;-84
2024/01/02 07:15:50;;;;;;;1.58;1.13;;;6.20;99.90;;;;;;5102123;28;20063;-85
2024/01/02 07:18:15;;;;;;;2.10;1.42;;;6.20;99.90;;;;;;5110316;27;20084;-84
2024/01/02 07:20:41;;;;;;;1.90;1.20;;;6.30;99.90;;;;;;5100560;28;20460;-84
2024/01/02 07:23:07;;;;;;;2.58;1.35;;;6.20;99.90;;;;;;5101175;28;20048;-84
2024/01/02 07:25:33;;;;;;;1.60;1.20;;;6.20;99.90;;;;;;5108501;28;20030;-84
2024/01/02 07:27:58;;;;;;;1.48;1.10;;;6.80;99.90;;;;;;5081165;28;20043;-84
2024/01/02 07:30:24;;;;;;;2.03;1.10;;;6.30;99.90;;;;;;5097174;28;20055;-84
2024/01/02 07:32:49;;;;;;;2.78;1.30;;;6.80;99.90;;;;;;5100047;28;20038;-83
2024/01/02 07:35:15;;;;;;;1.65;1.30;;;6.90;99.90;;;;;;5104699;28;20387;-84
2024/01/02 07:37:41;;;;;;;3.22;1.25;;;6.40;99.90;;;;;;5086145;28;20084;-84
2024/01/02 07:40:07;;;;;;;2.60;1.83;;;6.80;99.90;;;;;;5110595;28;20130;-83
2024/01/02 07:42:33;;;;;;;2.30;1.75;;;6.40;99.90;;;;;;5107577;27;20054;-85
2024/01/02 07:44:59;;;;;;;3.13;1.90;;;6.40;99.90;;;;;;5109859;27;20039;-84
2024/01/02 07:47:25;;;;;;;2.35;1.95;;;7.00;99.90;;;;;;5091899;27;20035;-84
2024/01/02 07:49:51;;;;;;;2.47;2.03;;;6.40;99.90;;;;;;5100166;27;20043;-84
2024/01/02 07:52:18;;;;;;;3.53;2.03;;;6.40;99.90;;;;;;5115621;27;20030;-84
2024/01/02 07:54:44;;;;;;;2.80;2.00;;;6.40;99.90;;;;;;5095015;27;20433;-84
2024/01/02 07:57:10;;;;;;;3.00;1.90;;;6.50;99.90;;;;;;5100498;27;20069;-84
2024/01/02 07:59:36;;;;;;;3.67;2.38;;;6.90;99.90;;;;;;5114165;27;20035;-84
2024/01/02 08:02:02;;;;;;;2.53;1.98;;;7.10;99.90;;;;;;5111804;28;20050;-84
2024/01/02 08:04:29;;;;;;;3.10;2.20;;;6.80;99.90;;;;;;5085549;27;20478;-82
2024/01/02 08:06:57;;;;;;;3.97;2.42;;;6.80;99.90;;;;;;5099708;27;20076;-83
2024/01/02 08:09:23;;;;;;;3.47;2.50;;;7.60;99.90;;;;;;5097811;27;20431;-83
2024/01/02 08:11:49;;;;;;;3.30;2.42;;;6.90;99.90;;;;;;5096827;28;20040;-84
2024/01/02 08:14:14;;;;;;;3.42;2.38;;;7.60;99.90;;;;;;5092002;27;20066;-84
2024/01/02 08:16:40;;;;;;;3.72;2.63;;;7.30;99.90;;;;;;5098284;27;20035;-83
2024/01/02 08:19:07;;;;;;;4.22;2.70;;;7.80;99.90;;;;;;5115919;27;20035;-83
2024/01/02 08:21:33;;;;;;;4.78;2.40;;;7.40;99.90;;;;;;5113445;27;20039;-81
2024/01/02 08:23:59;;;;;;;6.18;2.92;;;7.70;99.90;;;;;;5086932;28;20061;-83
2024/01/02 08:26:25;;;;;;;7.47;3.30;;;7.20;99.90;;;;;;5108143;27;20498;-82
2024/01/02 08:28:51;;;;;;;6.18;3.15;;;7.30;99.90;;;;;;5114070;27;20032;-84
2024/01/02 08:31:16;;;;;;;7.18;3.13;;;8.00;99.90;;;;;;5099311;27;20047;-84
2024/01/02 08:33:43;;;;;;;9.60;3.20;;;7.80;99.90;;;;;;5095293;27;20038;-84
2024/01/02 08:36:10;;;;;;;7.30;3.60;;;8.10;99.90;;;;;;5112463;27;20038;-84
2024/01/02 08:38:37;;;;;;;10.68;4.07;;;8.10;99.90;;;;;;5097272;27;20371;-84
2024/01/02 08:41:02;;;;;;;12.50;3.88;;;7.70;99.90;;;;;;5093353;27;20043;-84
2024/01/02 08:43:28;;;;;;;9.32;3.78;;;7.80;99.90;;;;;;5115629;27;20517;-83
2024/01/02 08:45:54;;;;;;;11.57;4.18;;;8.40;99.90;;;;;;5089306;27;20123;-83
2024/01/02 08:48:19;;;;;;;14.95;3.80;;;8.10;99.90;;;;;;5099727;27;20043;-84
2024/01/02 08:50:45;;;;;;;11.15;3.53;;;8.10;99.90;;;;;;5094892;27;20039;-84
2024/01/02 08:53:11;;;;;;;11.10;3.65;;;8.70;99.90;;;;;;5113343;27;20048;-84
2024/01/02 08:55:37;;;;;;;10.38;3.67;;;8.70;99.90;;;;;;5105534;27;20045;-83
2024/01/02 08:58:03;;;;;;;10.60;3.17;;;8.40;99.90;;;;;;5096429;27;20156;-83
2024/01/02 09:00:29;;;;;;;15.13;3.72;;;8.50;99.90;;;;;;5096179;27;20062;-83
2024/01/02 09:02:55;;;;;;;12.93;3.80;;;8.70;99.90;;;;;;5091944;27;20410;-83
2024/01/02 09:05:21;;;;;;;14.48;3.00;;;8.80;99.90;;;;;;5097547;27;20063;-83
2024/01/02 09:07:46;;;;;;;13.00;3.08;;;8.80;99.90;;;;;;5113147;27;20488;-83
2024/01/02 09:10:13;;;;;;;14.50;2.75;;;8.80;99.90;;;;;;5116413;27;20042;-82
2024/01/02 09:12:39;;;;;;;13.98;4.60;;;9.10;99.90;;;;;;5116366;27;20121;-83
2024/01/02 09:15:06;;;;;;;18.05;2.72;;;9.20;99.90;;;;;;5107683;28;20040;-83
2024/01/02 09:17:32;;;;;;;17.13;3.10;;;9.00;99.90;;;;;;5097127;27;20042;-83
2024/01/02 09:19:58;;;;;;;18.17;3.33;;;9.20;99.90;;;;;;5113643;27;20040;-83
2024/01/02 09:22:24;;;;;;;17.02;2.40;;;9.10;99.90;;;;;;5114761;27;20043;-83
2024/01/02 09:24:52;;;;;;;17.42;3.00;;;9.20;99.90;;;;;;5109163;27;20039;-83
2024/01/02 09:27:18;;;;;;;17.02;4.55;;;9.40;99.90;;;;;;5092670;28;20047;-83
2024/01/02 09:29:44;;;;;;;13.30;3.00;;;9.20;99.90;;;;;;5115352;27;20130;-82
2024/01/02 09:32:10;;;;;;;20.02;3.42;;;9.20;99.90;;;;;;5106264;28;20123;-83
2024/01/02 09:34:37;;;;;;;12.40;2.65;;;9.30;99.90;;;;;;5078511;28;20067;-83
2024/01/02 09:37:04;;;;;;;14.43;2.85;;;9.30;99.90;;;;;;5089358;27;20133;-82
2024/01/02 09:39:30;;;;;;;20.35;4.03;;;9.40;99.90;;;;;;5096371;27;20526;-83
2024/01/02 09:42:18;;;;;;;23.65;4.78;;;9.40;99.90;;;;;;5113529;27;20035;-82
2024/01/02 09:44:49;;;;;;;20.00;5.13;;;9.40;99.90;;;;;;5110935;27;20027;-83
2024/01/02 09:47:21;;;;;;;14.75;4.68;;;9.40;99.90;;;;;;5095005;27;20031;-83
2024/01/02 09:50:12;;;;;;;30.55;9.85;;;9.40;99.90;;;;;;5114037;27;20051;-83
2024/01/02 09:52:56;;;;;;;27.63;5.95;;;9.40;99.90;;;;;;5094323;27;20030;-83
2024/01/02 09:55:24;;;;;;;19.77;7.18;;;9.50;99.90;;;;;;5094622;27;20035;-83
2024/01/02 09:58:05;;;;;;;17.85;3.58;;;9.70;99.90;;;;;;5104862;27;20032;-81
2024/01/02 10:00:49;;;;;;;15.80;3.55;;;9.60;99.90;;;;;;5107536;27;20451;-82
2024/01/02 10:03:45;;;;;;;16.08;2.35;;;9.60;99.90;;;;;;5095922;27;20043;-83
2024/01/02 10:06:26;;;;;;;15.40;2.40;;;9.70;99.90;;;;;;5114315;27;20061;-82
2024/01/02 10:09:09;;;;;;;14.82;2.30;;;9.70;99.90;;;;;;5094966;27;20039;-83
2024/01/02 10:12:03;;;;;;;13.23;2.30;;;9.70;99.90;;;;;;5097501;27;20555;-83
2024/01/02 10:14:42;;;;;;;19.92;3.60;;;9.80;99.90;;;;;;5114480;27;20573;-83
2024/01/02 10:17:32;;;;;;;16.50;3.10;;;9.80;99.90;;;;;;5111894;27;20039;-83
2024/01/02 10:19:58;;;;;;;19.95;2.78;;;9.70;99.90;;;;;;5090589;27;20456;-83
2024/01/02 10:22:45;;;;;;;19.50;2.70;;;9.90;99.90;;;;;;5097423;27;20035;-83
2024/01/02 10:25:15;;;;;;;22.83;3.00;;;9.80;99.90;;;;;;5114257;27;20035;-82
2024/01/02 10:28:13;;;;;;;18.35;3.10;;;9.80;99.90;;;;;;5114377;27;20035;-83
2024/01/02 10:31:04;;;;;;;11.63;2.45;;;9.80;99.90;;;;;;5097172;27;20035;-81
2024/01/02 10:33:37;;;;;;;13.55;2.95;;;9.90;99.90;;;;;;5093143;27;20047;-82
2024/01/02 10:36:04;;;;;;;15.67;3.00;;;9.90;99.90;;;;;;5114187;27;20066;-83
2024/01/02 10:38:51;;;;;;;21.95;3.38;;;9.90;99.90;;;;;;5110395;27;20042;-82
2024/01/02 10:41:26;;;;;;;14.57;2.63;;;10.00;99.90;;;;;;5113227;27;20443;-83
2024/01/02 10:43:58;;;;;;;16.50;2.38;;;10.00;99.90;;;;;;5110497;28;20047;-82
2024/01/02 10:46:32;;;;;;;20.17;3.42;;;10.00;99.90;;;;;;5097046;27;20047;-83
2024/01/02 10:49:34;;;;;;;16.98;2.97;;;10.10;99.90;;;;;;5113414;27;20510;-83
2024/01/02 10:52:25;;;;;;;20.77;3.33;;;10.00;99.90;;;;;;5080713;28;20061;-83
2024/01/02 10:55:08;;;;;;;15.70;2.97;;;10.10;99.90;;;;;;5109981;27;20039;-83
2024/01/02 10:57:37;;;;;;;21.30;3.92;;;10.00;99.90;;;;;;5093763;27;20067;-82
2024/01/02 11:00:10;;;;;;;26.10;5.95;;;10.10;99.90;;;;;;5112463;27;20062;-82
2024/01/02 11:02:53;;;;;;;22.85;6.68;;;10.10;99.90;;;;;;5092562;27;20091;-84
2024/01/02 11:05:31;;;;;;;28.25;10.75;;;10.20;99.90;;;;;;5096904;27;20039;-83
2024/01/02 11:08:25;;;;;;;39.50;14.27;;;10.20;99.90;;;;;;5096805;27;20534;-83
2024/01/02 11:10:57;;;;;;;40.65;14.63;;;10.20;99.90;;;;;;5113560;27;20031;-82
2024/01/02 11:13:26;;;;;;;42.97;15.95;;;10.20;99.90;;;;;;5096833;27;20513;-83
2024/01/02 11:15:56;;;;;;;38.85;15.80;;;10.20;99.90;;;;;;5094498;27;20035;-83
2024/01/02 11:18:27;;;;;;;41.35;15.48;;;10.20;99.90;;;;;;5095450;28;20035;-83
2024/01/02 11:21:08;;;;;;;37.67;14.30;;;10.30;99.90;;;;;;5113443;28;20499;-83
2024/01/02 11:23:40;;;;;;;34.53;13.20;;;10.20;99.90;;;;;;5112371;28;20519;-83
2024/01/02 11:26:25;;;;;;;37.20;12.48;;;10.20;99.90;;;;;;5113727;28;20047;-82
2024/01/02 11:28:59;;;;;;;37.58;12.30;;;10.30;99.90;;;;;;5082447;28;20031;-82
2024/01/02 11:31:29;;;;;;;32.30;10.70;;;10.30;99.90;;;;;;5110208;28;20514;-83
2024/01/02 11:34:04;;;;;;;34.55;10.90;;;10.40;99.90;;;;;;5103533;28;20039;-83
2024/01/02 11:36:49;;;;;;;29.42;11.15;;;10.30;99.90;;;;;;5112084;28;20031;-82
2024/01/02 11:39:33;;;;;;;32.15;9.23;;;10.30;99.90;;;;;;5094908;28;20482;-82
2024/01/02 11:42:14;;;;;;;34.13;8.48;;;10.30;99.90;;;;;;5118183;28;20088;-82
2024/01/02 11:44:57;;;;;;;26.88;8.63;;;10.30;99.90;;;;;;5097551;28;20379;-83
2024/01/02 11:47:48;;;;;;;32.65;8.02;;;10.30;99.90;;;;;;5113069;28;20046;-83
2024/01/02 11:50:15;;;;;;;26.95;9.55;;;10.30;99.90;;;;;;5113011;28;20036;-82
2024/01/02 11:53:07;;;;;;;30.38;8.75;;;10.40;99.90;;;;;;5113659;28;20075;-82
2024/01/02 11:55:50;;;;;;;25.23;6.95;;;10.30;99.90;;;;;;5093344;28;20371;-83
2024/01/02 11:58:28;;;;;;;24.65;7.00;;;10.40;99.90;;;;;;5089486;28;20458;-82
2024/01/02 12:00:57;;;;;;;23.30;5.70;;;10.30;99.90;;;;;;5098932;28;20118;-82
2024/01/02 12:03:51;;;;;;;24.13;6.18;;;10.30;99.90;;;;;;5091246;28;20039;-83
2024/01/02 12:06:26;;;;;;;22.70;5.53;;;10.30;99.90;;;;;;5095935;28;20090;-83
2024/01/02 12:08:58;;;;;;;31.65;5.82;;;10.30;99.90;;;;;;5109315;28;20070;-83
2024/01/02 12:11:28;;;;;;;29.02;4.95;;;10.30;99.90;;;;;;5104323;28;20047;-81
2024/01/02 12:14:17;;;;;;;23.15;5.20;;;10.30;99.90;;;;;;5091213;28;20035;-81
2024/01/02 12:16:45;;;;;;;21.88;5.13;;;10.30;99.90;;;;;;5112090;28;20042;-83
2024/01/02 12:19:20;;;;;;;17.50;4.47;;;10.40;99.90;;;;;;5092818;28;20058;-83
2024/01/02 12:21:47;;;;;;;21.55;4.25;;;10.30;99.90;;;;;;5095662;28;20108;-83
2024/01/02 12:24:16;;;;;;;24.10;4.60;;;10.30;99.90;;;;;;5091784;28;20066;-83
2024/01/02 12:26:44;;;;;;;23.17;4.03;;;10.30;99.90;;;;;;5113024;28;20084;-82
2024/01/02 12:29:16;;;;;;;18.40;3.60;;;10.30;99.90;;;;;;5095328;27;20031;-82
2024/01/02 12:31:50;;;;;;;23.33;3.95;;;10.30;99.90;;;;;;5099361;27;20510;-83
2024/01/02 12:34:24;;;;;;;23.30;3.78;;;10.20;99.90;;;;;;5099096;27;20046;-83
2024/01/02 12:37:18;;;;;;;21.27;3.78;;;10.20;99.90;;;;;;5099049;27;20031;-83
2024/01/02 12:39:47;;;;;;;21.33;3.45;;;10.20;99.90;;;;;;5096885;27;20105;-83
2024/01/02 12:42:20;;;;;;;22.83;4.05;;;10.10;99.90;;;;;;5097343;27;20043;-83
2024/01/02 12:44:50;;;;;;;24.73;4.43;;;10.10;99.90;;;;;;5097723;27;20091;-83
2024/01/02 12:47:21;;;;;;;26.30;3.95;;;10.10;99.90;;;;;;5107101;27;20066;-82
2024/01/02 12:50:02;;;;;;;18.45;4.10;;;10.10;99.90;;;;;;5097227;27;20065;-83
2024/01/02 12:52:37;;;;;;;23.33;3.35;;;10.20;99.90;;;;;;5113311;27;20046;-84
2024/01/02 12:55:06;;;;;;;25.70;4.82;;;10.20;99.90;;;;;;5113386;27;20433;-84
2024/01/02 12:57:35;;;;;;;25.55;4.30;;;10.00;99.90;;;;;;5090419;27;20092;-82